createdAt,value
2022-11-29T00:01:42.232Z,11.30
2022-11-29T00:04:10.893Z,12.00
2022-11-29T00:06:39.532Z,12.80
2022-11-29T00:09:11.648Z,12.10
2022-11-29T00:12:00.221Z,11.80
2022-11-29T00:14:29.241Z,12.80
2022-11-29T00:17:02.190Z,13.60
2022-11-29T00:19:33.373Z,13.70
2022-11-29T00:22:02.416Z,13.70
2022-11-29T00:24:32.743Z,13.70
2022-11-29T00:29:30.324Z,10.90
2022-11-29T00:31:58.498Z,12.20
2022-11-29T00:34:26.576Z,12.00
2022-11-29T00:36:54.872Z,11.50
2022-11-29T00:39:23.475Z,11.50
2022-11-29T00:41:51.430Z,11.10
2022-11-29T00:44:20.609Z,12.10
2022-11-29T00:46:49.444Z,12.40
2022-11-29T00:49:17.565Z,11.90
2022-11-29T00:51:46.658Z,13.00
2022-11-29T00:54:15.158Z,11.40
2022-11-29T00:56:43.912Z,12.20
2022-11-29T00:59:12.147Z,11.90
2022-11-29T01:01:40.219Z,11.30
2022-11-29T01:04:08.455Z,11.40
2022-11-29T01:06:36.587Z,11.20
2022-11-29T01:09:05.061Z,12.20
2022-11-29T01:11:33.532Z,11.10
2022-11-29T01:14:03.057Z,13.50
2022-11-29T01:16:32.061Z,12.40
2022-11-29T01:19:00.683Z,12.00
2022-11-29T01:21:28.961Z,11.70
2022-11-29T01:23:57.584Z,11.90
2022-11-29T01:26:27.657Z,11.50
2022-11-29T01:28:57.930Z,11.40
2022-11-29T01:31:36.410Z,11.40
2022-11-29T01:34:05.877Z,11.70
2022-11-29T01:36:35.313Z,11.90
2022-11-29T01:39:05.737Z,12.90
2022-11-29T01:44:12.312Z,9.00
2022-11-29T01:46:43.522Z,10.00
2022-11-29T01:49:22.562Z,11.00
2022-11-29T01:51:55.483Z,11.00
2022-11-29T01:54:23.620Z,11.00
2022-11-29T01:56:52.970Z,11.20
2022-11-29T01:59:25.909Z,12.10
2022-11-29T02:02:02.974Z,12.00
2022-11-29T02:04:34.998Z,12.00
2022-11-29T02:07:03.798Z,12.10
2022-11-29T02:09:31.891Z,12.20
2022-11-29T02:12:06.172Z,11.80
2022-11-29T02:14:37.053Z,11.90
2022-11-29T02:17:27.747Z,12.00
2022-11-29T02:20:26.754Z,11.60
2022-11-29T02:23:13.520Z,11.10
2022-11-29T02:26:03.263Z,11.10
2022-11-29T02:28:56.209Z,10.50
2022-11-29T02:31:35.548Z,10.60
2022-11-29T02:34:06.348Z,10.50
2022-11-29T02:36:34.422Z,10.50
2022-11-29T02:39:05.429Z,9.80
2022-11-29T02:41:55.155Z,11.00
2022-11-29T02:44:40.495Z,11.40
2022-11-29T02:47:32.766Z,12.50
2022-11-29T02:50:19.008Z,11.50
2022-11-29T02:53:20.152Z,11.50
2022-11-29T02:56:07.128Z,10.90
2022-11-29T02:58:45.885Z,9.70
2022-11-29T03:01:24.013Z,10.80
2022-11-29T03:04:09.924Z,9.50
2022-11-29T03:06:57.103Z,11.40
2022-11-29T03:09:36.499Z,10.90
2022-11-29T03:12:25.969Z,11.60
2022-11-29T03:15:16.274Z,11.80
2022-11-29T03:18:33.507Z,11.30
2022-11-29T03:21:13.987Z,10.70
2022-11-29T03:26:26.851Z,10.10
2022-11-29T03:28:54.869Z,11.30
2022-11-29T03:31:36.183Z,11.70
2022-11-29T03:34:09.863Z,11.30
2022-11-29T03:36:54.867Z,11.40
2022-11-29T03:39:33.517Z,11.80
2022-11-29T03:42:11.793Z,11.30
2022-11-29T03:44:51.364Z,14.40
2022-11-29T03:47:29.089Z,13.30
2022-11-29T03:50:05.675Z,12.60
2022-11-29T03:52:55.820Z,12.30
2022-11-29T03:55:48.604Z,12.00
2022-11-29T03:58:22.890Z,11.70
2022-11-29T04:00:50.824Z,13.90
2022-11-29T04:03:53.235Z,13.60
2022-11-29T04:06:50.013Z,13.00
2022-11-29T04:09:36.583Z,13.90
2022-11-29T04:12:21.502Z,12.10
2022-11-29T04:15:04.136Z,12.70
2022-11-29T04:17:49.081Z,13.30
2022-11-29T04:20:45.442Z,12.00
2022-11-29T04:23:22.061Z,11.60
2022-11-29T04:26:11.891Z,12.20
2022-11-29T04:29:04.956Z,11.60
2022-11-29T04:31:33.175Z,11.90
2022-11-29T04:34:07.342Z,12.00
2022-11-29T04:37:13.407Z,11.80
2022-11-29T04:40:00.525Z,12.30
2022-11-29T04:42:34.537Z,11.70
2022-11-29T04:45:44.532Z,12.30
2022-11-29T04:48:30.647Z,10.90
2022-11-29T04:51:24.838Z,12.00
2022-11-29T04:54:06.985Z,12.50
2022-11-29T04:57:08.327Z,12.40
2022-11-29T05:00:00.893Z,12.00
2022-11-29T05:02:53.516Z,13.90
2022-11-29T05:05:43.730Z,15.40
2022-11-29T05:08:36.964Z,16.30
2022-11-29T05:11:32.667Z,14.90
2022-11-29T05:14:28.488Z,13.50
2022-11-29T05:17:08.970Z,13.90
2022-11-29T05:20:07.082Z,13.60
2022-11-29T05:22:35.154Z,11.50
2022-11-29T05:25:18.756Z,14.30
2022-11-29T05:27:52.530Z,17.10
2022-11-29T05:30:23.208Z,26.20
2022-11-29T05:33:09.503Z,18.70
2022-11-29T05:35:55.062Z,16.40
2022-11-29T05:39:15.593Z,14.60
2022-11-29T05:42:08.494Z,13.80
2022-11-29T05:44:47.746Z,13.30
2022-11-29T05:47:29.774Z,14.00
2022-11-29T05:50:08.834Z,13.50
2022-11-29T05:53:07.487Z,14.20
2022-11-29T05:55:59.554Z,13.00
2022-11-29T05:58:39.753Z,13.50
2022-11-29T06:01:22.905Z,13.60
2022-11-29T06:04:20.911Z,13.00
2022-11-29T06:07:25.314Z,12.00
2022-11-29T06:10:01.629Z,12.50
2022-11-29T06:12:35.067Z,15.10
2022-11-29T06:15:16.568Z,15.10
2022-11-29T06:18:29.509Z,14.00
2022-11-29T06:20:58.694Z,13.40
2022-11-29T06:23:51.090Z,14.20
2022-11-29T06:26:34.468Z,12.90
2022-11-29T06:29:24.721Z,14.10
2022-11-29T06:32:08.546Z,14.00
2022-11-29T06:34:47.262Z,13.90
2022-11-29T06:37:27.283Z,13.50
2022-11-29T06:39:55.856Z,14.30
2022-11-29T06:42:24.014Z,16.20
2022-11-29T06:44:52.519Z,16.20
2022-11-29T06:47:55.512Z,18.50
2022-11-29T06:50:33.100Z,29.60
2022-11-29T06:53:29.748Z,27.00
2022-11-29T06:56:41.886Z,25.40
2022-11-29T06:59:29.037Z,24.50
2022-11-29T07:02:06.014Z,20.80
2022-11-29T07:05:05.405Z,20.60
2022-11-29T07:07:35.331Z,18.70
2022-11-29T07:10:08.312Z,19.20
2022-11-29T07:12:40.559Z,25.60
2022-11-29T07:15:14.296Z,25.50
2022-11-29T07:18:09.246Z,22.40
2022-11-29T07:21:08.828Z,18.90
2022-11-29T07:23:58.844Z,27.60
2022-11-29T07:26:35.072Z,26.90
2022-11-29T07:29:41.503Z,28.30
2022-11-29T07:33:03.930Z,27.10
2022-11-29T07:35:32.033Z,22.50
2022-11-29T07:38:11.508Z,18.70
2022-11-29T07:40:58.511Z,16.40
2022-11-29T07:43:29.743Z,15.30
2022-11-29T07:45:57.924Z,14.90
2022-11-29T07:48:27.018Z,24.30
2022-11-29T07:50:56.376Z,40.00
2022-11-29T07:53:24.891Z,36.90
2022-11-29T07:55:53.314Z,41.70
2022-11-29T07:58:21.579Z,79.00
2022-11-29T08:00:49.792Z,69.00
2022-11-29T08:03:18.276Z,53.90
2022-11-29T08:05:47.950Z,45.60
2022-11-29T08:08:16.380Z,47.50
2022-11-29T08:10:45.366Z,57.60
2022-11-29T08:13:14.187Z,65.90
2022-11-29T08:15:46.748Z,52.80
2022-11-29T08:18:17.810Z,29.70
2022-11-29T08:20:46.481Z,17.60
2022-11-29T08:23:14.816Z,14.60
2022-11-29T08:25:42.942Z,15.60
2022-11-29T08:28:11.383Z,31.70
2022-11-29T08:30:39.626Z,60.70
2022-11-29T08:33:07.862Z,54.90
2022-11-29T08:35:36.479Z,47.30
2022-11-29T08:38:05.091Z,31.20
2022-11-29T08:40:33.220Z,22.50
2022-11-29T08:43:01.296Z,27.80
2022-11-29T08:45:29.431Z,33.80
2022-11-29T08:47:57.487Z,58.30
2022-11-29T08:50:25.850Z,58.30
2022-11-29T08:53:12.854Z,57.20
2022-11-29T08:55:43.169Z,38.70
2022-11-29T08:58:13.996Z,41.10
2022-11-29T09:03:30.536Z,45.10
2022-11-29T09:05:59.381Z,32.90
2022-11-29T09:08:27.476Z,38.00
2022-11-29T09:10:55.550Z,35.20
2022-11-29T09:13:23.612Z,28.40
2022-11-29T09:15:52.213Z,18.50
2022-11-29T09:18:22.728Z,16.00
2022-11-29T09:23:18.565Z,12.10
2022-11-29T09:25:50.187Z,12.80
2022-11-29T09:28:18.292Z,13.20
2022-11-29T09:30:46.427Z,13.30
2022-11-29T09:33:14.388Z,12.10
2022-11-29T09:35:42.678Z,14.00
2022-11-29T09:38:12.426Z,12.80
2022-11-29T09:40:52.365Z,12.20
2022-11-29T09:43:41.956Z,11.30
2022-11-29T09:46:30.329Z,12.60
2022-11-29T09:49:13.532Z,11.90
2022-11-29T09:54:49.456Z,12.90
2022-11-29T09:57:19.851Z,12.00
2022-11-29T10:02:34.725Z,10.30
2022-11-29T10:05:26.365Z,13.70
2022-11-29T10:08:07.329Z,12.30
2022-11-29T10:10:46.392Z,13.00
2022-11-29T10:13:35.722Z,11.20
2022-11-29T10:16:14.522Z,12.40
2022-11-29T10:18:54.510Z,11.80
2022-11-29T10:21:28.511Z,13.30
2022-11-29T10:24:02.364Z,12.50
2022-11-29T10:26:35.152Z,11.10
2022-11-29T10:29:04.281Z,11.10
2022-11-29T10:31:37.221Z,10.30
2022-11-29T10:34:15.690Z,11.50
2022-11-29T10:36:59.807Z,9.10
2022-11-29T10:39:39.839Z,12.30
2022-11-29T10:42:39.067Z,13.00
2022-11-29T10:45:25.444Z,10.10
2022-11-29T10:48:01.874Z,10.60
2022-11-29T10:50:33.792Z,10.60
2022-11-29T10:53:07.304Z,10.60
2022-11-29T10:55:55.029Z,9.00
2022-11-29T10:58:28.336Z,9.60
2022-11-29T11:01:11.398Z,10.80
2022-11-29T11:03:52.785Z,9.20
2022-11-29T11:06:43.163Z,9.60
2022-11-29T11:09:23.320Z,8.70
2022-11-29T11:11:55.800Z,8.20
2022-11-29T11:14:27.882Z,8.70
2022-11-29T11:16:56.307Z,8.10
2022-11-29T11:19:29.352Z,8.90
2022-11-29T11:22:03.484Z,8.80
2022-11-29T11:24:36.120Z,8.70
2022-11-29T11:27:05.029Z,8.50
2022-11-29T11:29:40.431Z,10.50
2022-11-29T11:32:17.963Z,9.10
2022-11-29T11:35:22.605Z,8.00
2022-11-29T11:37:57.694Z,8.20
2022-11-29T11:40:29.360Z,7.10
2022-11-29T11:43:03.024Z,7.90
2022-11-29T11:45:35.466Z,7.70
2022-11-29T11:48:16.367Z,7.90
2022-11-29T11:53:33.936Z,6.90
2022-11-29T11:56:09.768Z,7.70
2022-11-29T11:58:54.862Z,7.70
2022-11-29T12:01:44.382Z,6.70
2022-11-29T12:04:17.979Z,7.70
2022-11-29T12:06:55.240Z,7.90
2022-11-29T12:09:35.111Z,8.00
2022-11-29T12:12:17.730Z,8.20
2022-11-29T12:15:01.574Z,6.70
2022-11-29T12:17:46.629Z,7.40
2022-11-29T12:20:23.963Z,7.60
2022-11-29T12:22:58.119Z,6.60
2022-11-29T12:25:35.340Z,5.90
2022-11-29T12:28:03.923Z,6.40
2022-11-29T12:30:33.969Z,6.70
2022-11-29T12:33:24.204Z,6.80
2022-11-29T12:36:36.716Z,6.60
2022-11-29T12:39:37.186Z,6.00
2022-11-29T12:42:28.697Z,8.90
2022-11-29T12:44:57.396Z,6.10
2022-11-29T12:48:03.812Z,6.60
2022-11-29T12:51:08.130Z,5.70
2022-11-29T12:54:19.367Z,6.30
2022-11-29T12:57:05.740Z,8.90
2022-11-29T12:59:58.273Z,13.90
2022-11-29T13:02:29.477Z,9.40
2022-11-29T13:05:24.799Z,6.70
2022-11-29T13:08:23.717Z,6.20
2022-11-29T13:11:17.741Z,6.00
2022-11-29T13:14:41.596Z,5.90
2022-11-29T13:17:05.393Z,6.00
2022-11-29T13:19:42.638Z,5.90
2022-11-29T13:22:44.418Z,5.70
2022-11-29T13:25:18.916Z,5.70
2022-11-29T13:28:07.277Z,5.40
2022-11-29T13:30:36.016Z,6.10
2022-11-29T13:33:32.564Z,6.10
2022-11-29T13:36:00.612Z,6.70
2022-11-29T13:38:54.816Z,5.70
2022-11-29T13:41:46.371Z,6.10
2022-11-29T13:44:19.841Z,5.70
2022-11-29T13:47:07.272Z,7.10
2022-11-29T13:49:54.277Z,7.70
2022-11-29T13:52:47.354Z,7.50
2022-11-29T13:55:28.969Z,7.40
2022-11-29T13:58:16.661Z,8.00
2022-11-29T14:00:45.434Z,7.20
2022-11-29T14:03:29.025Z,7.30
2022-11-29T14:06:18.708Z,6.70
2022-11-29T14:09:27.334Z,7.80
2022-11-29T14:12:06.590Z,8.50
2022-11-29T14:14:42.018Z,9.80
2022-11-29T14:17:37.425Z,10.60
2022-11-29T14:20:24.443Z,10.90
2022-11-29T14:23:05.490Z,11.50
2022-11-29T14:25:51.301Z,11.50
2022-11-29T14:28:22.359Z,11.90
2022-11-29T14:30:55.426Z,11.40
2022-11-29T14:33:47.035Z,11.00
2022-11-29T14:36:15.434Z,9.60
2022-11-29T14:39:02.080Z,9.10
2022-11-29T14:41:52.238Z,7.90
2022-11-29T14:44:25.487Z,7.50
2022-11-29T14:47:32.078Z,8.10
2022-11-29T14:50:04.247Z,8.10
2022-11-29T14:52:52.420Z,7.50
2022-11-29T14:55:20.552Z,7.70
2022-11-29T14:57:54.754Z,7.60
2022-11-29T15:00:34.958Z,8.10
2022-11-29T15:03:14.037Z,8.40
2022-11-29T15:05:46.401Z,7.50
2022-11-29T15:08:20.662Z,7.70
2022-11-29T15:10:57.623Z,8.00
2022-11-29T15:13:35.004Z,8.90
2022-11-29T15:16:09.294Z,9.40
2022-11-29T15:19:13.540Z,11.00
2022-11-29T15:22:13.959Z,8.60
2022-11-29T15:24:55.698Z,7.70
2022-11-29T15:27:25.372Z,7.50
2022-11-29T15:29:55.369Z,8.10
2022-11-29T15:32:32.830Z,7.70
2022-11-29T15:35:02.419Z,8.40
2022-11-29T15:37:37.424Z,7.30
2022-11-29T15:40:21.273Z,6.30
2022-11-29T15:43:12.513Z,6.30
2022-11-29T15:48:19.721Z,5.10
2022-11-29T15:51:07.243Z,6.90
2022-11-29T15:53:35.334Z,6.70
2022-11-29T15:56:11.576Z,8.10
2022-11-29T15:58:40.153Z,8.70
2022-11-29T16:01:09.442Z,8.90
2022-11-29T16:03:41.056Z,9.10
2022-11-29T16:06:26.477Z,9.00
2022-11-29T16:08:58.812Z,7.70
2022-11-29T16:11:34.487Z,7.40
2022-11-29T16:14:22.629Z,8.60
2022-11-29T16:16:53.364Z,6.20
2022-11-29T16:19:31.234Z,7.70
2022-11-29T16:22:08.467Z,6.60
2022-11-29T16:24:39.149Z,6.20
2022-11-29T16:27:08.277Z,6.50
2022-11-29T16:29:41.878Z,6.70
2022-11-29T16:32:35.224Z,6.00
2022-11-29T16:35:14.230Z,7.30
2022-11-29T16:37:44.566Z,7.40
2022-11-29T16:40:38.986Z,7.30
2022-11-29T16:43:24.161Z,7.50
2022-11-29T16:46:20.666Z,6.30
2022-11-29T16:49:03.689Z,6.90
2022-11-29T16:51:39.220Z,8.90
2022-11-29T16:54:26.180Z,8.30
2022-11-29T16:56:57.331Z,7.70
2022-11-29T16:59:28.554Z,7.40
2022-11-29T17:01:57.428Z,8.10
2022-11-29T17:04:26.302Z,6.70
2022-11-29T17:06:57.193Z,6.60
2022-11-29T17:09:33.220Z,6.20
2022-11-29T17:12:03.351Z,6.90
2022-11-29T17:14:32.244Z,7.00
2022-11-29T17:17:01.400Z,8.50
2022-11-29T17:19:31.441Z,9.40
2022-11-29T17:22:02.142Z,9.80
2022-11-29T17:24:30.293Z,10.60
2022-11-29T17:26:59.032Z,10.50
2022-11-29T17:29:30.140Z,10.00
2022-11-29T17:31:58.906Z,9.90
2022-11-29T17:34:26.968Z,10.90
2022-11-29T17:36:57.837Z,11.40
2022-11-29T17:39:26.945Z,11.50
2022-11-29T17:41:56.193Z,11.10
2022-11-29T17:44:24.248Z,10.70
2022-11-29T17:46:53.045Z,12.90
2022-11-29T17:49:21.175Z,14.60
2022-11-29T17:51:52.396Z,11.30
2022-11-29T17:54:27.208Z,10.50
2022-11-29T17:56:56.334Z,9.50
2022-11-29T17:59:28.640Z,9.60
2022-11-29T18:01:57.024Z,11.90
2022-11-29T18:04:25.612Z,14.50
2022-11-29T18:06:55.188Z,12.80
2022-11-29T18:09:23.352Z,11.90
2022-11-29T18:11:53.180Z,11.60
2022-11-29T18:14:23.977Z,11.20
2022-11-29T18:16:52.538Z,9.60
2022-11-29T18:19:22.832Z,10.30
2022-11-29T18:21:52.351Z,10.10
2022-11-29T18:24:20.536Z,10.50
2022-11-29T18:26:49.149Z,10.50
2022-11-29T18:29:17.560Z,10.70
2022-11-29T18:31:49.782Z,10.00
2022-11-29T18:34:17.883Z,10.70
2022-11-29T18:36:48.895Z,10.50
2022-11-29T18:39:20.735Z,11.00
2022-11-29T18:41:50.135Z,10.50
2022-11-29T18:44:21.173Z,11.40
2022-11-29T18:46:51.159Z,10.90
2022-11-29T18:49:19.886Z,11.60
2022-11-29T18:51:50.043Z,10.90
2022-11-29T18:54:19.402Z,13.20
2022-11-29T18:56:50.222Z,15.70
2022-11-29T18:59:18.514Z,14.80
2022-11-29T19:01:48.576Z,16.00
2022-11-29T19:04:21.169Z,16.70
2022-11-29T19:06:49.668Z,21.00
2022-11-29T19:09:21.461Z,20.50
2022-11-29T19:11:51.186Z,21.80
2022-11-29T19:14:19.484Z,21.00
2022-11-29T19:16:50.159Z,21.20
2022-11-29T19:19:19.566Z,20.20
2022-11-29T19:21:48.868Z,20.60
2022-11-29T19:24:18.385Z,20.50
2022-11-29T19:26:50.371Z,18.80
2022-11-29T19:29:20.605Z,17.90
2022-11-29T19:31:50.480Z,15.30
2022-11-29T19:34:19.163Z,19.10
2022-11-29T19:36:47.250Z,17.80
2022-11-29T19:39:17.050Z,16.30
2022-11-29T19:41:48.101Z,20.90
2022-11-29T19:44:18.149Z,21.30
2022-11-29T19:46:48.827Z,28.10
2022-11-29T19:51:45.355Z,23.50
2022-11-29T19:54:13.472Z,22.10
2022-11-29T19:56:42.153Z,19.20
2022-11-29T19:59:10.328Z,19.30
2022-11-29T20:01:41.431Z,18.60
2022-11-29T20:04:13.019Z,18.00
2022-11-29T20:09:11.787Z,19.80
2022-11-29T20:11:39.821Z,22.00
2022-11-29T20:14:08.924Z,22.10
2022-11-29T20:16:39.180Z,22.60
2022-11-29T20:19:15.904Z,20.40
2022-11-29T20:21:49.098Z,19.70
2022-11-29T20:24:19.458Z,18.00
2022-11-29T20:26:49.091Z,17.00
2022-11-29T20:29:18.157Z,19.70
2022-11-29T20:31:50.518Z,19.30
2022-11-29T20:34:20.499Z,16.80
2022-11-29T20:37:24.139Z,15.90
2022-11-29T20:40:01.899Z,13.90
2022-11-29T20:42:49.764Z,15.00
2022-11-29T20:45:18.503Z,15.50
2022-11-29T20:47:46.566Z,15.20
2022-11-29T20:50:23.831Z,15.80
2022-11-29T20:53:07.680Z,15.00
2022-11-29T20:55:42.625Z,14.10
2022-11-29T20:58:13.469Z,12.90
2022-11-29T21:00:41.860Z,11.20
2022-11-29T21:03:14.471Z,11.70
2022-11-29T21:05:42.918Z,13.80
2022-11-29T21:08:11.356Z,13.10
2022-11-29T21:10:40.047Z,12.70
2022-11-29T21:13:10.899Z,12.90
2022-11-29T21:15:41.189Z,12.80
2022-11-29T21:18:19.989Z,11.70
2022-11-29T21:21:00.229Z,11.70
2022-11-29T21:23:34.375Z,12.20
2022-11-29T21:26:10.605Z,12.70
2022-11-29T21:28:46.999Z,11.60
2022-11-29T21:31:17.879Z,11.80
2022-11-29T21:33:46.324Z,11.80
2022-11-29T21:36:14.436Z,12.50
2022-11-29T21:38:42.592Z,12.10
2022-11-29T21:41:11.876Z,12.30
2022-11-29T21:44:05.513Z,11.80
2022-11-29T21:46:28.823Z,12.70
2022-11-29T21:48:56.880Z,12.60
2022-11-29T21:51:25.036Z,13.20
2022-11-29T21:53:53.085Z,14.30
2022-11-29T21:56:21.066Z,12.60
2022-11-29T21:58:49.179Z,13.10
2022-11-29T22:01:19.756Z,12.80
2022-11-29T22:03:48.183Z,14.20
2022-11-29T22:06:21.276Z,12.70
2022-11-29T22:08:52.337Z,11.50
2022-11-29T22:11:31.417Z,12.60
2022-11-29T22:14:19.979Z,13.50
2022-11-29T22:16:51.032Z,13.10
2022-11-29T22:19:23.670Z,12.40
2022-11-29T22:22:05.499Z,14.10
2022-11-29T22:24:36.335Z,12.40
2022-11-29T22:27:04.526Z,13.20
2022-11-29T22:29:32.671Z,12.70
2022-11-29T22:32:01.313Z,14.00
2022-11-29T22:34:29.423Z,15.40
2022-11-29T22:36:57.558Z,17.60
2022-11-29T22:39:25.782Z,15.50
2022-11-29T22:41:54.925Z,15.70
2022-11-29T22:44:24.643Z,16.90
2022-11-29T22:46:54.037Z,16.00
2022-11-29T22:49:22.234Z,17.70
2022-11-29T22:51:50.422Z,16.20
2022-11-29T22:54:18.488Z,17.30
2022-11-29T22:56:47.264Z,18.30
2022-11-29T22:59:15.256Z,16.70
2022-11-29T23:01:43.657Z,18.90
2022-11-29T23:04:13.307Z,20.30
2022-11-29T23:06:43.874Z,17.10
2022-11-29T23:09:19.908Z,17.80
2022-11-29T23:11:56.373Z,15.30
2022-11-29T23:14:24.871Z,16.40
2022-11-29T23:16:53.216Z,16.80
2022-11-29T23:19:21.564Z,15.70
2022-11-29T23:21:49.785Z,12.40
2022-11-29T23:24:17.919Z,14.10
2022-11-29T23:26:47.439Z,18.40
2022-11-29T23:29:18.627Z,19.50
2022-11-29T23:31:47.541Z,19.60
2022-11-29T23:34:15.748Z,17.40
2022-11-29T23:39:21.256Z,15.40
2022-11-29T23:41:49.373Z,16.30
2022-11-29T23:44:17.413Z,15.80
2022-11-29T23:46:45.420Z,14.90
2022-11-29T23:49:13.557Z,15.50
2022-11-29T23:51:42.519Z,14.20
2022-11-29T23:54:10.568Z,18.10
2022-11-29T23:56:38.724Z,21.50
2022-11-29T23:59:06.819Z,21.20
